createdAt,value
2023-01-17T00:00:41.332Z,508.00
2023-01-17T00:01:41.225Z,504.00
2023-01-17T00:02:41.226Z,504.00
2023-01-17T00:03:41.236Z,502.00
2023-01-17T00:04:41.137Z,505.00
2023-01-17T00:05:41.102Z,506.00
2023-01-17T00:06:41.062Z,508.00
2023-01-17T00:07:41.082Z,506.00
2023-01-17T00:08:40.994Z,500.00
2023-01-17T00:09:40.943Z,502.00
2023-01-17T00:10:40.926Z,503.00
2023-01-17T00:11:40.883Z,504.00
2023-01-17T00:12:40.838Z,505.00
2023-01-17T00:13:40.796Z,511.00
2023-01-17T00:14:40.766Z,509.00
2023-01-17T00:15:40.735Z,517.00
2023-01-17T00:16:40.693Z,513.00
2023-01-17T00:17:40.657Z,512.00
2023-01-17T00:18:40.611Z,509.00
2023-01-17T00:19:40.586Z,515.00
2023-01-17T00:20:40.541Z,516.00
2023-01-17T00:21:40.497Z,514.00
2023-01-17T00:22:40.479Z,520.00
2023-01-17T00:23:40.437Z,521.00
2023-01-17T00:24:40.401Z,521.00
2023-01-17T00:25:40.370Z,518.00
2023-01-17T00:26:40.338Z,525.00
2023-01-17T00:27:40.305Z,520.00
2023-01-17T00:28:40.277Z,523.00
2023-01-17T00:29:40.223Z,523.00
2023-01-17T00:30:40.195Z,530.00
2023-01-17T00:31:40.204Z,529.00
2023-01-17T00:32:40.123Z,526.00
2023-01-17T00:33:40.107Z,527.00
2023-01-17T00:34:40.054Z,527.00
2023-01-17T00:35:40.021Z,523.00
2023-01-17T00:36:39.987Z,528.00
2023-01-17T00:37:39.957Z,524.00
2023-01-17T00:38:39.919Z,525.00
2023-01-17T00:39:39.893Z,530.00
2023-01-17T00:40:39.856Z,526.00
2023-01-17T00:41:39.823Z,528.00
2023-01-17T00:42:39.793Z,531.00
2023-01-17T00:43:39.765Z,527.00
2023-01-17T00:44:39.734Z,527.00
2023-01-17T00:45:39.690Z,530.00
2023-01-17T00:46:39.695Z,526.00
2023-01-17T00:47:39.619Z,530.00
2023-01-17T00:48:39.612Z,534.00
2023-01-17T00:49:39.553Z,527.00
2023-01-17T00:50:39.541Z,529.00
2023-01-17T00:51:39.492Z,528.00
2023-01-17T00:52:39.472Z,529.00
2023-01-17T00:53:39.443Z,531.00
2023-01-17T00:54:39.410Z,524.00
2023-01-17T00:55:39.390Z,521.00
2023-01-17T00:56:39.331Z,520.00
2023-01-17T00:57:39.301Z,518.00
2023-01-17T00:58:39.279Z,523.00
2023-01-17T00:59:39.246Z,522.00
2023-01-17T01:00:39.268Z,520.00
2023-01-17T01:01:39.334Z,518.00
2023-01-17T01:02:39.190Z,518.00
2023-01-17T01:03:39.110Z,518.00
2023-01-17T01:04:39.070Z,516.00
2023-01-17T01:05:39.046Z,514.00
2023-01-17T01:06:38.991Z,511.00
2023-01-17T05:22:30.860Z,524.00
2023-01-17T05:23:30.831Z,526.00
2023-01-17T05:24:30.802Z,522.00
2023-01-17T05:25:30.772Z,524.00
2023-01-17T05:26:30.734Z,525.00
2023-01-17T05:27:30.707Z,523.00
2023-01-17T05:28:30.680Z,527.00
2023-01-17T05:29:30.893Z,532.00
2023-01-17T05:30:30.608Z,529.00
2023-01-17T05:31:30.583Z,528.00
2023-01-17T05:32:30.542Z,529.00
2023-01-17T05:33:30.512Z,530.00
2023-01-17T05:34:30.481Z,529.00
2023-01-17T05:35:30.443Z,528.00
2023-01-17T05:36:30.430Z,531.00
2023-01-17T05:37:30.389Z,531.00
2023-01-17T05:38:30.343Z,527.00
2023-01-17T05:39:30.303Z,527.00
2023-01-17T05:40:30.268Z,530.00
2023-01-17T05:41:30.227Z,531.00
2023-01-17T05:42:30.192Z,534.00
2023-01-17T05:43:30.161Z,530.00
2023-01-17T05:44:30.119Z,529.00
2023-01-17T05:45:30.082Z,527.00
2023-01-17T05:46:30.140Z,533.00
2023-01-17T05:47:30.052Z,529.00
2023-01-17T05:48:29.990Z,532.00
2023-01-17T05:49:29.963Z,530.00
2023-01-17T05:50:29.926Z,533.00
2023-01-17T05:51:29.892Z,524.00
2023-01-17T05:52:29.869Z,523.00
2023-01-17T05:53:29.896Z,523.00
2023-01-17T05:54:29.807Z,521.00
2023-01-17T05:55:29.788Z,519.00
2023-01-17T05:56:29.737Z,519.00
2023-01-17T05:57:29.720Z,518.00
2023-01-17T05:58:29.685Z,520.00
2023-01-17T05:59:36.944Z,526.00
2023-01-17T06:01:29.594Z,524.00
2023-01-17T06:02:29.579Z,524.00
2023-01-17T06:03:29.520Z,520.00
2023-01-17T06:04:29.530Z,524.00
2023-01-17T06:05:29.451Z,520.00
2023-01-17T06:06:29.410Z,516.00
2023-01-17T06:07:29.365Z,520.00
2023-01-17T06:08:29.331Z,519.00
2023-01-17T06:09:29.339Z,522.00
2023-01-17T06:10:29.267Z,519.00
2023-01-17T06:11:29.236Z,520.00
2023-01-17T06:12:29.215Z,521.00
2023-01-17T06:13:29.172Z,520.00
2023-01-17T06:14:29.139Z,538.00
2023-01-17T06:15:29.112Z,559.00
2023-01-17T06:16:29.067Z,553.00
2023-01-17T06:17:29.022Z,555.00
2023-01-17T06:18:28.988Z,549.00
2023-01-17T06:19:28.949Z,555.00
2023-01-17T06:20:28.917Z,557.00
2023-01-17T09:09:21.477Z,685.00
2023-01-17T09:10:21.459Z,688.00
2023-01-17T09:11:21.376Z,652.00
2023-01-17T09:12:21.337Z,649.00
2023-01-17T09:13:21.273Z,699.00
2023-01-17T09:14:21.229Z,656.00
2023-01-17T09:15:21.193Z,664.00
2023-01-17T09:16:21.171Z,659.00
2023-01-17T09:17:21.075Z,653.00
2023-01-17T09:18:21.031Z,654.00
2023-01-17T09:19:20.987Z,654.00
2023-01-17T09:20:20.988Z,649.00
2023-01-17T09:21:20.879Z,643.00
2023-01-17T09:22:20.856Z,618.00
2023-01-17T09:23:20.773Z,644.00
2023-01-17T09:24:20.723Z,644.00
2023-01-17T09:25:20.663Z,649.00
2023-01-17T09:26:20.598Z,640.00
2023-01-17T09:27:20.546Z,631.00
2023-01-17T09:28:20.515Z,644.00
2023-01-17T09:29:20.462Z,638.00
2023-01-17T09:30:20.498Z,606.00
2023-01-17T09:31:20.334Z,618.00
2023-01-17T09:32:20.336Z,624.00
2023-01-17T09:33:20.234Z,620.00
2023-01-17T09:34:20.209Z,631.00
2023-01-17T09:35:20.163Z,625.00
2023-01-17T09:36:20.083Z,623.00
2023-01-17T09:37:20.034Z,634.00
2023-01-17T09:38:19.980Z,633.00
2023-01-17T09:39:19.935Z,629.00
2023-01-17T09:40:19.882Z,625.00
2023-01-17T09:41:19.836Z,632.00
2023-01-17T09:42:19.789Z,632.00
2023-01-17T09:43:19.726Z,631.00
2023-01-17T09:44:19.694Z,628.00
2023-01-17T09:45:19.635Z,629.00
2023-01-17T09:46:19.591Z,633.00
2023-01-17T09:47:19.590Z,660.00
2023-01-17T09:48:19.484Z,697.00
2023-01-17T09:49:19.484Z,687.00
2023-01-17T09:50:19.400Z,717.00
2023-01-17T09:51:19.352Z,732.00
2023-01-17T09:52:19.383Z,696.00
2023-01-17T09:53:19.229Z,740.00
2023-01-17T09:54:19.192Z,707.00
2023-01-17T09:55:19.134Z,749.00
2023-01-17T09:56:19.101Z,738.00
2023-01-17T09:57:19.047Z,684.00
2023-01-17T09:58:18.996Z,602.00
2023-01-17T09:59:19.205Z,476.00
2023-01-17T10:03:19.330Z,491.00
2023-01-17T13:14:11.542Z,1585.00
2023-01-17T13:15:11.518Z,1581.00
2023-01-17T13:16:11.500Z,1576.00
2023-01-17T13:17:11.431Z,1584.00
2023-01-17T13:18:11.398Z,1578.00
2023-01-17T13:19:11.379Z,1581.00
2023-01-17T13:20:11.430Z,1582.00
2023-01-17T13:21:11.284Z,1567.00
2023-01-17T13:22:11.237Z,1568.00
2023-01-17T13:23:11.220Z,1571.00
2023-01-17T13:24:11.164Z,1569.00
2023-01-17T13:25:11.136Z,1575.00
2023-01-17T13:26:11.100Z,1569.00
2023-01-17T13:27:11.065Z,1570.00
2023-01-17T13:28:11.039Z,1570.00
2023-01-17T13:29:10.996Z,1574.00
2023-01-17T13:30:11.055Z,1568.00
2023-01-17T13:31:10.972Z,1569.00
2023-01-17T13:32:10.893Z,1571.00
2023-01-17T13:33:10.867Z,1566.00
2023-01-17T13:34:10.811Z,1575.00
2023-01-17T13:35:10.783Z,1575.00
2023-01-17T13:36:10.779Z,1563.00
2023-01-17T13:37:10.703Z,1561.00
2023-01-17T13:38:10.663Z,1566.00
2023-01-17T13:39:10.631Z,1546.00
2023-01-17T13:40:10.600Z,1552.00
2023-01-17T13:41:10.553Z,1558.00
2023-01-17T13:42:10.530Z,1559.00
2023-01-17T13:43:10.472Z,1560.00
2023-01-17T13:44:10.430Z,1548.00
2023-01-17T13:45:10.416Z,1555.00
2023-01-17T13:46:10.356Z,1558.00
2023-01-17T13:47:10.339Z,1564.00
2023-01-17T13:48:10.295Z,1545.00
2023-01-17T13:49:10.252Z,1533.00
2023-01-17T13:50:10.216Z,1559.00
2023-01-17T13:51:10.175Z,1540.00
2023-01-17T13:52:10.145Z,1539.00
2023-01-17T13:53:10.115Z,1538.00
2023-01-17T13:54:10.081Z,1542.00
2023-01-17T13:55:10.059Z,1527.00
2023-01-17T13:56:09.998Z,1526.00
2023-01-17T13:57:09.980Z,1523.00
2023-01-17T13:58:09.937Z,1537.00
2023-01-17T13:59:09.897Z,1523.00
2023-01-17T14:00:09.852Z,1544.00
2023-01-17T14:01:09.918Z,1527.00
2023-01-17T14:02:09.789Z,1538.00
2023-01-17T14:03:09.782Z,1524.00
2023-01-17T14:04:09.727Z,1511.00
2023-01-17T14:05:09.699Z,1512.00
2023-01-17T14:06:09.658Z,1519.00
2023-01-17T14:07:09.625Z,1507.00
2023-01-17T14:08:09.588Z,1508.00
2023-01-17T14:09:09.563Z,1510.00
2023-01-17T14:10:09.524Z,1508.00
2023-01-17T14:11:10.042Z,1496.00
2023-01-17T14:12:09.453Z,1503.00
2023-01-17T14:13:09.417Z,1503.00
2023-01-17T14:14:09.383Z,1502.00
2023-01-17T14:15:09.351Z,1479.00
2023-01-17T14:16:09.368Z,1488.00
2023-01-17T14:17:09.272Z,1478.00
2023-01-17T14:18:09.244Z,1486.00
2023-01-17T14:19:09.234Z,1480.00
2023-01-17T14:20:09.188Z,1487.00
2023-01-17T14:21:09.127Z,1477.00
2023-01-17T14:22:09.093Z,1469.00
2023-01-17T14:23:09.059Z,1459.00
2023-01-17T14:24:09.023Z,1461.00
2023-01-17T14:25:09.003Z,1462.00
2023-01-17T14:26:08.971Z,1464.00
2023-01-17T14:27:08.908Z,1465.00
2023-01-17T18:49:59.581Z,1156.00
2023-01-17T18:50:59.527Z,1142.00
2023-01-17T18:51:59.499Z,1149.00
2023-01-17T18:52:59.462Z,1146.00
2023-01-17T18:53:59.418Z,1154.00
2023-01-17T18:54:59.372Z,1142.00
2023-01-17T18:55:59.348Z,1123.00
2023-01-17T18:56:59.321Z,1147.00
2023-01-17T18:57:59.284Z,1141.00
2023-01-17T18:58:59.253Z,1140.00
2023-01-17T18:59:59.222Z,1129.00
2023-01-17T19:00:59.282Z,1132.00
2023-01-17T19:01:59.170Z,1129.00
2023-01-17T19:02:59.119Z,1131.00
2023-01-17T19:03:59.132Z,1135.00
2023-01-17T19:04:59.050Z,1131.00
2023-01-17T19:05:59.017Z,1141.00
2023-01-17T19:06:58.991Z,1126.00
2023-01-17T19:07:58.978Z,1126.00
2023-01-17T19:08:58.977Z,1142.00
2023-01-17T19:09:58.916Z,1127.00
2023-01-17T21:56:53.285Z,1111.00
2023-01-17T21:57:53.246Z,1118.00
2023-01-17T21:58:53.221Z,1115.00
2023-01-17T21:59:53.197Z,1124.00
2023-01-17T22:04:53.025Z,1130.00
2023-01-17T22:17:52.539Z,1140.00
2023-01-17T22:18:52.508Z,1140.00
2023-01-17T22:20:52.440Z,1141.00
2023-01-17T22:21:52.410Z,1135.00
2023-01-17T22:22:52.371Z,1151.00
2023-01-17T22:24:52.311Z,1149.00
2023-01-17T23:52:49.477Z,1019.00
2023-01-17T23:53:49.448Z,1019.00
2023-01-17T23:54:49.433Z,1015.00
2023-01-17T23:55:49.361Z,1008.00
2023-01-17T23:56:49.350Z,1008.00
2023-01-17T23:57:49.319Z,1013.00
2023-01-17T23:58:49.282Z,1025.00
2023-01-17T23:59:49.282Z,1026.00
